Time;durP1;ratioP1;P1;durP2;ratioP2;P2;SDS_P1;SDS_P2;PMS_P1;PMS_P2;Temp;Humidity;BMP_temperature;BMP_pressure;BME280_temperature;BME280_humidity;BME280_pressure;Samples;Min_cycle;Max_cycle;Signal;HPM_P1;HPM_P2
2022/04/14 00:01:28;;;;;;;0.70;0.70;;;3.10;99.90;;;;;;4973832;28;20208;-81
2022/04/14 00:03:53;;;;;;;0.68;0.68;;;3.10;99.90;;;;;;4956908;28;20204;-80
2022/04/14 00:06:19;;;;;;;0.60;0.60;;;3.10;99.90;;;;;;4972821;28;20212;-81
2022/04/14 00:08:45;;;;;;;3.38;1.67;;;3.10;99.90;;;;;;4972340;28;20259;-81
2022/04/14 00:11:10;;;;;;;0.52;0.52;;;3.10;99.90;;;;;;4956628;28;20239;-80
2022/04/14 00:13:36;;;;;;;0.75;0.75;;;3.10;99.90;;;;;;4953943;28;20300;-81
2022/04/14 00:16:02;;;;;;;0.68;0.68;;;3.10;99.90;;;;;;4957043;28;20215;-81
2022/04/14 00:18:27;;;;;;;0.50;0.50;;;3.10;99.90;;;;;;4972556;28;20216;-81
2022/04/14 00:20:53;;;;;;;0.70;0.70;;;3.10;99.90;;;;;;4972926;28;20310;-81
2022/04/14 00:23:19;;;;;;;0.70;0.70;;;3.10;99.90;;;;;;4972667;28;20203;-81
2022/04/14 00:25:44;;;;;;;0.63;0.63;;;3.20;99.90;;;;;;4974131;28;20231;-81
2022/04/14 00:28:10;;;;;;;0.60;0.60;;;3.20;99.90;;;;;;4972737;28;20752;-81
2022/04/14 00:30:36;;;;;;;13.65;2.45;;;3.20;99.90;;;;;;4974142;28;20283;-81
2022/04/14 00:33:01;;;;;;;0.68;0.68;;;3.20;99.90;;;;;;4976352;28;20680;-81
2022/04/14 00:35:27;;;;;;;0.68;0.68;;;3.10;99.90;;;;;;4976110;28;20204;-81
2022/04/14 00:37:53;;;;;;;0.60;0.60;;;3.10;99.90;;;;;;4977749;28;20200;-81
2022/04/14 00:40:18;;;;;;;0.70;0.70;;;3.10;99.90;;;;;;4975645;28;20266;-81
2022/04/14 00:42:44;;;;;;;0.60;0.60;;;3.10;99.90;;;;;;4972499;28;20205;-81
2022/04/14 00:45:10;;;;;;;0.70;0.70;;;3.10;99.90;;;;;;4946404;28;20199;-80
2022/04/14 00:47:36;;;;;;;0.70;0.70;;;3.10;99.90;;;;;;4995277;28;20207;-81
2022/04/14 00:50:06;;;;;;;1.20;0.82;;;3.10;99.90;;;;;;4996885;28;20198;-81
2022/04/14 00:52:31;;;;;;;0.70;0.70;;;3.10;99.90;;;;;;4996406;28;20246;-81
2022/04/14 00:54:57;;;;;;;0.60;0.60;;;3.10;99.90;;;;;;4995295;28;20200;-81
2022/04/14 00:57:23;;;;;;;0.70;0.70;;;3.10;99.90;;;;;;4981985;28;20231;-81
2022/04/14 00:59:49;;;;;;;0.90;0.90;;;3.10;99.90;;;;;;4958784;28;20643;-81
2022/04/14 01:02:15;;;;;;;0.60;0.60;;;3.10;99.90;;;;;;4959039;28;20201;-85
2022/04/14 01:04:41;;;;;;;0.60;0.60;;;3.20;99.90;;;;;;4958702;28;20201;-86
2022/04/14 01:07:08;;;;;;;47.58;1.70;;;3.20;99.90;;;;;;4958828;28;20196;-87
2022/04/14 01:09:36;;;;;;;0.70;0.70;;;3.10;99.90;;;;;;4975974;28;20200;-86
2022/04/14 01:12:03;;;;;;;0.75;0.75;;;3.10;99.90;;;;;;4958494;28;20231;-86
2022/04/14 01:14:35;;;;;;;0.70;0.70;;;3.10;99.90;;;;;;4974500;28;20209;-86
2022/04/14 01:17:03;;;;;;;1.55;1.30;;;3.10;99.90;;;;;;4959602;28;20674;-87
2022/04/14 01:19:30;;;;;;;0.90;0.90;;;3.20;99.90;;;;;;4959697;28;20251;-86
2022/04/14 01:22:08;;;;;;;1.30;1.20;;;3.20;99.90;;;;;;4975897;28;20196;-87
2022/04/14 01:24:35;;;;;;;0.57;0.57;;;3.20;99.90;;;;;;4975430;28;20578;-86
2022/04/14 01:27:01;;;;;;;1.02;0.95;;;3.20;99.90;;;;;;4975511;28;20915;-87
2022/04/14 01:29:28;;;;;;;0.80;0.80;;;3.20;99.90;;;;;;4976699;28;20271;-87
2022/04/14 01:31:55;;;;;;;0.65;0.65;;;3.20;99.90;;;;;;4975341;28;20251;-86
2022/04/14 01:34:21;;;;;;;0.70;0.70;;;3.20;99.90;;;;;;4974807;28;20619;-86
2022/04/14 01:36:46;;;;;;;0.80;0.80;;;3.20;99.90;;;;;;4958999;28;20248;-86
2022/04/14 01:39:13;;;;;;;0.60;0.60;;;3.20;99.90;;;;;;4975338;28;20192;-85
2022/04/14 01:41:43;;;;;;;0.70;0.70;;;3.20;99.90;;;;;;4978307;28;20196;-85
2022/04/14 01:44:10;;;;;;;0.88;0.88;;;3.20;99.90;;;;;;4996044;28;20215;-86
2022/04/14 01:46:37;;;;;;;0.70;0.70;;;3.20;99.90;;;;;;4977944;28;20544;-85
2022/04/14 01:49:04;;;;;;;0.50;0.50;;;3.20;99.90;;;;;;4977731;28;20287;-86
2022/04/14 01:51:30;;;;;;;0.60;0.60;;;3.20;99.90;;;;;;4977858;28;20295;-86
2022/04/14 01:53:56;;;;;;;0.55;0.55;;;3.20;99.90;;;;;;4960360;28;20295;-87
2022/04/14 01:56:22;;;;;;;1.67;1.55;;;3.20;99.90;;;;;;4976139;28;20251;-86
2022/04/14 01:58:48;;;;;;;0.57;0.57;;;3.20;99.90;;;;;;4958930;28;20295;-86
2022/04/14 02:01:14;;;;;;;0.70;0.70;;;3.20;99.90;;;;;;4957168;28;20212;-86
2022/04/14 02:03:40;;;;;;;0.57;0.57;;;3.20;99.90;;;;;;4958503;28;20204;-87
2022/04/14 02:06:06;;;;;;;1.17;0.90;;;3.20;99.90;;;;;;4975971;28;20200;-86
2022/04/14 02:08:31;;;;;;;0.60;0.60;;;3.20;99.90;;;;;;4974494;28;20222;-86
2022/04/14 02:10:57;;;;;;;0.80;0.80;;;3.20;99.90;;;;;;4975360;28;20224;-85
2022/04/14 02:13:23;;;;;;;0.50;0.50;;;3.20;99.90;;;;;;4958266;28;20731;-87
2022/04/14 02:15:49;;;;;;;0.88;0.88;;;3.20;99.90;;;;;;4988141;28;20304;-86
2022/04/14 02:18:14;;;;;;;0.85;0.82;;;3.20;99.90;;;;;;4995151;28;20542;-85
2022/04/14 02:20:40;;;;;;;0.80;0.80;;;3.20;99.90;;;;;;4993817;28;20219;-85
2022/04/14 02:23:06;;;;;;;0.80;0.80;;;3.20;99.90;;;;;;4994547;28;20192;-86
2022/04/14 02:25:31;;;;;;;0.90;0.90;;;3.20;99.90;;;;;;4993574;28;20206;-87
2022/04/14 02:27:57;;;;;;;0.70;0.70;;;3.20;99.90;;;;;;4995082;28;20200;-86
2022/04/14 02:30:23;;;;;;;1.15;1.05;;;3.10;99.90;;;;;;4993459;28;20214;-86
2022/04/14 02:32:49;;;;;;;0.75;0.75;;;3.20;99.90;;;;;;4992864;28;20199;-86
2022/04/14 02:35:14;;;;;;;0.52;0.52;;;3.10;99.90;;;;;;4994133;28;20210;-86
2022/04/14 02:37:40;;;;;;;0.50;0.50;;;3.20;99.90;;;;;;4993897;28;20196;-86
2022/04/14 02:40:07;;;;;;;0.60;0.60;;;3.20;99.90;;;;;;4992758;28;20211;-86
2022/04/14 02:42:32;;;;;;;0.70;0.70;;;3.20;99.90;;;;;;4956529;28;20197;-86
2022/04/14 02:44:58;;;;;;;0.80;0.80;;;3.20;99.90;;;;;;4954622;29;20610;-86
2022/04/14 02:47:25;;;;;;;0.60;0.60;;;3.20;99.90;;;;;;4954586;29;20228;-86
2022/04/14 02:49:51;;;;;;;0.70;0.70;;;3.20;99.90;;;;;;4970204;28;20196;-86
2022/04/14 02:52:17;;;;;;;0.60;0.60;;;3.20;99.90;;;;;;4975112;28;20199;-86
2022/04/14 02:54:43;;;;;;;0.70;0.70;;;3.20;99.90;;;;;;4956666;28;20219;-86
2022/04/14 02:57:09;;;;;;;0.60;0.60;;;3.10;99.90;;;;;;4975018;28;20192;-86
2022/04/14 02:59:36;;;;;;;0.80;0.80;;;3.10;99.90;;;;;;4957398;28;20302;-86
2022/04/14 03:02:03;;;;;;;0.80;0.80;;;3.10;99.90;;;;;;4957240;28;20568;-86
2022/04/14 03:04:30;;;;;;;0.90;0.90;;;3.10;99.90;;;;;;4957268;28;20639;-86
2022/04/14 03:06:56;;;;;;;0.52;0.52;;;3.10;99.90;;;;;;4973272;28;20283;-86
2022/04/14 03:09:22;;;;;;;0.68;0.68;;;3.10;99.90;;;;;;4973553;28;20203;-85
2022/04/14 03:11:48;;;;;;;0.70;0.70;;;3.00;99.90;;;;;;4957537;28;20220;-86
2022/04/14 03:14:13;;;;;;;0.70;0.70;;;3.10;99.90;;;;;;4975225;28;20212;-86
2022/04/14 03:16:39;;;;;;;0.80;0.80;;;3.10;99.90;;;;;;4972572;28;20216;-86
2022/04/14 03:19:05;;;;;;;0.70;0.70;;;3.10;99.90;;;;;;4972791;28;20671;-86
2022/04/14 03:21:31;;;;;;;0.85;0.85;;;3.10;99.90;;;;;;4973746;28;20211;-87
2022/04/14 03:23:56;;;;;;;0.65;0.65;;;3.10;99.90;;;;;;4974055;28;20271;-86
2022/04/14 03:26:22;;;;;;;0.60;0.60;;;3.10;99.90;;;;;;4956228;28;20208;-86
2022/04/14 03:28:48;;;;;;;1.02;1.02;;;3.10;99.90;;;;;;4973936;28;20196;-85
2022/04/14 03:31:13;;;;;;;0.70;0.70;;;3.10;99.90;;;;;;4956910;28;20588;-86
2022/04/14 03:33:39;;;;;;;0.60;0.60;;;3.10;99.90;;;;;;4975044;28;20283;-86
2022/04/14 03:36:05;;;;;;;3.92;1.48;;;3.10;99.90;;;;;;4992796;28;20637;-86
2022/04/14 03:38:31;;;;;;;1.33;1.10;;;3.10;99.90;;;;;;4992498;28;20635;-87
2022/04/14 03:40:59;;;;;;;0.60;0.60;;;3.10;99.90;;;;;;4976583;28;20219;-86
2022/04/14 03:43:25;;;;;;;0.70;0.70;;;3.00;99.90;;;;;;4973211;28;20205;-86
2022/04/14 03:45:51;;;;;;;0.80;0.80;;;3.10;99.90;;;;;;4979651;28;20566;-86
2022/04/14 03:48:17;;;;;;;0.60;0.60;;;3.00;99.90;;;;;;4956326;28;20656;-86
2022/04/14 03:50:43;;;;;;;1.60;1.50;;;3.10;99.90;;;;;;4956231;28;20196;-86
2022/04/14 03:53:08;;;;;;;0.80;0.80;;;3.10;99.90;;;;;;4956432;28;20204;-86
2022/04/14 03:55:34;;;;;;;0.63;0.63;;;3.10;99.90;;;;;;4972365;28;20211;-86
2022/04/14 03:58:00;;;;;;;0.50;0.50;;;3.10;99.90;;;;;;4972436;28;20200;-86
2022/04/14 04:00:26;;;;;;;0.60;0.60;;;3.10;99.90;;;;;;4973634;28;20215;-86
2022/04/14 04:02:51;;;;;;;0.60;0.60;;;3.10;99.90;;;;;;4973763;28;20231;-86
2022/04/14 04:05:17;;;;;;;0.73;0.73;;;3.10;99.90;;;;;;4958453;28;20247;-86
2022/04/14 04:07:43;;;;;;;0.85;0.85;;;3.10;99.90;;;;;;4976863;28;20200;-86
2022/04/14 04:10:09;;;;;;;0.60;0.60;;;3.10;99.90;;;;;;4976682;28;20294;-86
2022/04/14 04:12:34;;;;;;;0.80;0.80;;;3.10;99.90;;;;;;4973908;28;20254;-86
2022/04/14 04:15:00;;;;;;;0.65;0.65;;;3.10;99.90;;;;;;4960903;28;20672;-86
2022/04/14 04:17:26;;;;;;;0.65;0.65;;;3.10;99.90;;;;;;4975810;28;20747;-87
2022/04/14 04:19:52;;;;;;;0.80;0.80;;;3.10;99.90;;;;;;4975793;28;20227;-85
2022/04/14 04:22:17;;;;;;;0.60;0.60;;;3.10;99.90;;;;;;4976941;28;20199;-86
2022/04/14 04:24:43;;;;;;;0.60;0.60;;;3.10;99.90;;;;;;4976002;28;20200;-87
2022/04/14 04:27:09;;;;;;;0.60;0.60;;;3.10;99.90;;;;;;4959498;28;20196;-86
2022/04/14 04:29:35;;;;;;;0.63;0.63;;;3.10;99.90;;;;;;4975450;28;20207;-87
2022/04/14 04:32:01;;;;;;;0.75;0.75;;;3.20;99.90;;;;;;4994794;28;20249;-86
2022/04/14 04:34:27;;;;;;;1.00;0.90;;;3.10;99.90;;;;;;4996029;28;20278;-87
2022/04/14 04:36:52;;;;;;;0.90;0.88;;;3.20;99.90;;;;;;4995126;28;20608;-87
2022/04/14 04:39:18;;;;;;;2.75;1.58;;;3.20;99.90;;;;;;4994947;28;20218;-86
2022/04/14 04:41:44;;;;;;;1.13;1.00;;;3.20;99.90;;;;;;4984578;28;20219;-87
2022/04/14 04:44:10;;;;;;;1.75;1.30;;;3.20;99.90;;;;;;4959463;28;20279;-88
2022/04/14 04:46:36;;;;;;;1.45;1.35;;;3.20;99.90;;;;;;4959827;28;20200;-87
2022/04/14 04:49:02;;;;;;;0.70;0.70;;;3.20;99.90;;;;;;4976282;28;20246;-87
2022/04/14 04:51:28;;;;;;;0.98;0.98;;;3.20;99.90;;;;;;4959979;28;20331;-86
2022/04/14 04:53:54;;;;;;;0.60;0.60;;;3.20;99.90;;;;;;4960350;28;20196;-87
2022/04/14 04:56:19;;;;;;;0.70;0.70;;;3.20;99.90;;;;;;4959789;28;20214;-87
2022/04/14 04:58:45;;;;;;;0.90;0.90;;;3.20;99.90;;;;;;4959829;28;20287;-87
2022/04/14 05:01:12;;;;;;;0.65;0.65;;;3.20;99.90;;;;;;4970911;28;20220;-88
2022/04/14 05:03:38;;;;;;;0.65;0.65;;;3.30;99.90;;;;;;4991075;28;20232;-86
2022/04/14 05:06:04;;;;;;;0.93;0.90;;;3.20;99.90;;;;;;4976632;28;20204;-87
2022/04/14 05:08:29;;;;;;;0.80;0.80;;;3.30;99.90;;;;;;4980375;28;20255;-87
2022/04/14 05:10:55;;;;;;;0.57;0.57;;;3.30;99.90;;;;;;4966947;28;20684;-87
2022/04/14 05:13:21;;;;;;;0.70;0.70;;;3.30;99.90;;;;;;4956379;29;20284;-87
2022/04/14 05:15:47;;;;;;;0.60;0.60;;;3.30;99.90;;;;;;4956535;28;20260;-86
2022/04/14 05:18:12;;;;;;;0.60;0.60;;;3.30;99.90;;;;;;4940193;29;20205;-86
2022/04/14 05:20:40;;;;;;;0.80;0.80;;;3.30;99.90;;;;;;4957462;28;20240;-86
2022/04/14 05:23:10;;;;;;;0.80;0.80;;;3.30;99.90;;;;;;4940282;29;20228;-86
2022/04/14 05:25:38;;;;;;;0.95;0.90;;;3.20;99.90;;;;;;4956159;28;20193;-86
2022/04/14 05:28:04;;;;;;;0.90;0.88;;;3.30;99.90;;;;;;4957156;29;20729;-88
2022/04/14 05:30:30;;;;;;;0.70;0.70;;;3.30;99.90;;;;;;4956731;29;20280;-87
2022/04/14 05:32:56;;;;;;;1.10;1.00;;;3.30;99.90;;;;;;4939323;29;20212;-85
2022/04/14 05:35:22;;;;;;;0.77;0.77;;;3.40;99.90;;;;;;4938854;29;20256;-86
2022/04/14 05:37:49;;;;;;;1.88;0.90;;;3.40;99.90;;;;;;4938960;28;20201;-87
2022/04/14 05:40:15;;;;;;;1.88;1.73;;;3.40;99.90;;;;;;4954662;29;20201;-85
2022/04/14 05:42:46;;;;;;;0.70;0.70;;;3.40;99.90;;;;;;4935472;29;20208;-86
2022/04/14 05:45:15;;;;;;;0.80;0.80;;;3.40;99.90;;;;;;4939368;28;20332;-85
2022/04/14 05:47:41;;;;;;;0.65;0.65;;;3.40;99.90;;;;;;4954745;28;20573;-86
2022/04/14 05:50:07;;;;;;;0.70;0.70;;;3.50;99.90;;;;;;4954853;28;20204;-87
2022/04/14 05:52:33;;;;;;;0.68;0.68;;;3.50;99.90;;;;;;4954600;28;20205;-86
2022/04/14 05:55:01;;;;;;;0.63;0.63;;;3.50;99.90;;;;;;4955931;28;20212;-86
2022/04/14 05:57:28;;;;;;;0.80;0.80;;;3.60;99.90;;;;;;4955558;28;20280;-86
2022/04/14 05:59:54;;;;;;;0.60;0.60;;;3.60;99.90;;;;;;4955748;29;20204;-86
2022/04/14 06:02:20;;;;;;;1.50;1.05;;;3.70;99.90;;;;;;4938300;29;20677;-86
2022/04/14 06:04:45;;;;;;;0.60;0.60;;;3.80;99.90;;;;;;4938125;29;20209;-86
2022/04/14 06:07:11;;;;;;;0.60;0.60;;;3.80;99.90;;;;;;4954554;28;20201;-86
2022/04/14 06:09:37;;;;;;;1.25;1.15;;;3.90;99.90;;;;;;4938579;29;21273;-86
2022/04/14 06:12:03;;;;;;;2.45;2.20;;;3.90;99.90;;;;;;4989136;28;20227;-86
2022/04/14 06:14:30;;;;;;;0.85;0.85;;;3.90;99.90;;;;;;4994532;28;20275;-87
2022/04/14 06:16:56;;;;;;;0.50;0.50;;;3.90;99.90;;;;;;4993076;28;20640;-86
2022/04/14 06:19:22;;;;;;;0.80;0.80;;;3.90;99.90;;;;;;4976832;28;20290;-86
2022/04/14 06:21:48;;;;;;;0.70;0.70;;;3.90;99.90;;;;;;4994364;28;20274;-87
2022/04/14 06:24:13;;;;;;;0.60;0.60;;;3.90;99.90;;;;;;4980801;28;20684;-87
2022/04/14 06:26:39;;;;;;;0.60;0.60;;;4.00;99.90;;;;;;4994036;28;20654;-87
2022/04/14 06:29:05;;;;;;;0.80;0.80;;;4.00;99.90;;;;;;4976040;28;20247;-87
2022/04/14 06:31:31;;;;;;;0.60;0.60;;;4.00;99.90;;;;;;4976510;28;20229;-87
2022/04/14 06:33:56;;;;;;;2.38;0.90;;;4.00;99.90;;;;;;4976481;28;20567;-86
2022/04/14 06:36:22;;;;;;;0.60;0.60;;;4.00;99.90;;;;;;4993822;28;20195;-87
2022/04/14 06:38:48;;;;;;;0.70;0.70;;;4.00;99.90;;;;;;4993087;28;20231;-87
2022/04/14 06:41:13;;;;;;;2.85;0.75;;;4.10;99.90;;;;;;4988160;28;20530;-86
2022/04/14 06:43:39;;;;;;;0.70;0.70;;;4.10;99.90;;;;;;4992629;28;21347;-86
2022/04/14 06:46:04;;;;;;;0.57;0.57;;;4.10;99.90;;;;;;5008975;28;20563;-86
2022/04/14 06:48:31;;;;;;;1.45;1.13;;;4.20;99.90;;;;;;4993704;28;20262;-86
2022/04/14 06:50:59;;;;;;;4.65;1.08;;;4.20;99.90;;;;;;4993845;28;20199;-87
2022/04/14 06:53:25;;;;;;;1.17;1.08;;;4.20;99.90;;;;;;4982043;28;20290;-86
2022/04/14 06:55:52;;;;;;;0.60;0.60;;;4.10;99.90;;;;;;4993807;28;20278;-86
2022/04/14 06:58:18;;;;;;;0.70;0.70;;;4.10;99.90;;;;;;4992356;28;20204;-86
2022/04/14 07:00:44;;;;;;;0.63;0.63;;;4.10;99.90;;;;;;4992025;28;20233;-87
2022/04/14 07:03:10;;;;;;;0.68;0.68;;;4.00;99.90;;;;;;4992454;28;20616;-86
2022/04/14 07:05:36;;;;;;;0.80;0.80;;;4.10;99.90;;;;;;4992193;28;20204;-87
2022/04/14 07:08:01;;;;;;;0.80;0.80;;;4.00;99.90;;;;;;4992273;28;20253;-87
2022/04/14 07:10:27;;;;;;;0.70;0.70;;;3.90;99.90;;;;;;4988647;28;20259;-87
2022/04/14 07:12:53;;;;;;;2.13;1.92;;;3.90;99.90;;;;;;4974077;28;20227;-86
2022/04/14 07:15:18;;;;;;;0.90;0.90;;;3.90;99.90;;;;;;4988765;28;20663;-85
2022/04/14 07:17:44;;;;;;;0.80;0.80;;;3.90;99.90;;;;;;4973890;28;20667;-87
2022/04/14 07:20:10;;;;;;;0.60;0.60;;;3.90;99.90;;;;;;4961016;28;20267;-87
2022/04/14 07:22:47;;;;;;;0.80;0.80;;;3.90;99.90;;;;;;4969197;28;20197;-86
2022/04/14 07:25:13;;;;;;;0.70;0.70;;;3.90;99.90;;;;;;4969544;28;20204;-86
2022/04/14 07:27:39;;;;;;;0.70;0.70;;;3.90;99.90;;;;;;4969353;28;20565;-87
2022/04/14 07:30:07;;;;;;;0.60;0.60;;;4.00;99.90;;;;;;4969274;28;20200;-87
2022/04/14 07:32:37;;;;;;;0.80;0.80;;;4.00;99.90;;;;;;4954373;28;20201;-86
2022/04/14 07:35:04;;;;;;;1.25;1.05;;;4.00;99.90;;;;;;4953545;29;20196;-86
2022/04/14 07:37:31;;;;;;;0.80;0.80;;;4.00;99.90;;;;;;4954313;28;20253;-86
2022/04/14 07:39:56;;;;;;;0.65;0.65;;;4.00;99.90;;;;;;4956716;28;20730;-86
2022/04/14 07:42:22;;;;;;;5.60;3.08;;;4.00;99.90;;;;;;4953487;29;20197;-86
2022/04/14 07:44:48;;;;;;;0.70;0.70;;;4.00;99.90;;;;;;4953918;29;20658;-86
2022/04/14 07:47:14;;;;;;;0.70;0.70;;;4.10;99.90;;;;;;4953818;29;20201;-86
2022/04/14 07:49:39;;;;;;;0.70;0.70;;;4.10;99.90;;;;;;4963618;28;20233;-86
2022/04/14 07:52:05;;;;;;;0.80;0.80;;;4.10;99.90;;;;;;4939119;29;20196;-86
2022/04/14 07:54:34;;;;;;;0.90;0.90;;;4.10;99.90;;;;;;4953628;29;20297;-86
2022/04/14 07:57:00;;;;;;;0.70;0.70;;;4.20;99.90;;;;;;4962233;28;20205;-87
2022/04/14 07:59:26;;;;;;;0.50;0.50;;;4.30;99.90;;;;;;4977356;28;20226;-86
2022/04/14 08:01:52;;;;;;;1.15;1.02;;;4.40;99.90;;;;;;4992343;28;20629;-86
2022/04/14 08:04:18;;;;;;;0.80;0.80;;;4.50;99.90;;;;;;4992278;28;20203;-86
2022/04/14 08:06:44;;;;;;;0.90;0.90;;;4.70;99.90;;;;;;4992183;28;20220;-86
2022/04/14 08:09:09;;;;;;;0.77;0.77;;;4.70;99.90;;;;;;4992250;28;20204;-87
2022/04/14 08:11:35;;;;;;;0.90;0.90;;;4.80;99.90;;;;;;4989899;28;20279;-87
2022/04/14 08:14:01;;;;;;;1.45;1.00;;;4.80;99.90;;;;;;4995477;28;20659;-87
2022/04/14 08:16:27;;;;;;;0.70;0.70;;;4.90;99.90;;;;;;4996361;28;20292;-87
2022/04/14 08:18:52;;;;;;;0.57;0.57;;;4.90;99.90;;;;;;4979274;28;20196;-87
2022/04/14 08:21:19;;;;;;;0.70;0.70;;;5.00;99.90;;;;;;4979020;28;20246;-87
2022/04/14 08:23:45;;;;;;;0.60;0.60;;;5.00;99.90;;;;;;4979016;28;20658;-87
2022/04/14 08:26:12;;;;;;;0.60;0.60;;;5.00;99.90;;;;;;4978987;28;20198;-87
2022/04/14 08:28:41;;;;;;;0.73;0.73;;;5.10;99.90;;;;;;4978604;28;20231;-87
2022/04/14 08:31:09;;;;;;;0.60;0.60;;;5.20;99.90;;;;;;4996428;28;20639;-87
2022/04/14 08:33:36;;;;;;;0.70;0.70;;;5.40;99.90;;;;;;4978635;28;20294;-87
2022/04/14 08:36:03;;;;;;;0.70;0.70;;;5.50;99.90;;;;;;4978876;28;20298;-87
2022/04/14 08:38:28;;;;;;;0.70;0.70;;;5.60;99.90;;;;;;4994779;28;20613;-87
2022/04/14 08:41:00;;;;;;;0.60;0.60;;;5.60;99.90;;;;;;4975066;28;20224;-87
2022/04/14 08:43:34;;;;;;;2.10;1.90;;;5.50;99.90;;;;;;4976580;28;20192;-87
2022/04/14 08:46:04;;;;;;;0.80;0.80;;;5.50;99.90;;;;;;4990601;28;20207;-87
2022/04/14 08:48:31;;;;;;;0.63;0.63;;;5.60;99.90;;;;;;4978416;28;20279;-87
2022/04/14 08:50:57;;;;;;;0.70;0.70;;;5.70;99.90;;;;;;4978057;28;20203;-87
2022/04/14 08:53:27;;;;;;;0.70;0.70;;;5.70;99.90;;;;;;4978431;28;20205;-86
2022/04/14 08:55:53;;;;;;;0.70;0.70;;;5.70;99.90;;;;;;4996100;28;20192;-87
2022/04/14 08:58:25;;;;;;;0.70;0.70;;;5.80;99.90;;;;;;4994452;28;20199;-87
2022/04/14 09:00:51;;;;;;;1.95;1.25;;;5.80;99.90;;;;;;4994532;28;20218;-87
2022/04/14 09:03:18;;;;;;;35.00;1.92;;;5.80;99.90;;;;;;4995790;28;20203;-84
2022/04/14 09:05:45;;;;;;;0.70;0.70;;;5.90;99.90;;;;;;4995980;28;20262;-84
2022/04/14 09:08:10;;;;;;;0.70;0.70;;;5.80;99.90;;;;;;4994558;28;20200;-84
2022/04/14 09:10:36;;;;;;;2.13;1.50;;;5.80;99.90;;;;;;4990840;28;20605;-87
2022/04/14 09:13:02;;;;;;;0.60;0.60;;;5.80;99.90;;;;;;4976024;28;20204;-87
2022/04/14 09:15:27;;;;;;;0.70;0.70;;;5.80;99.90;;;;;;4974667;28;20211;-86
2022/04/14 09:17:54;;;;;;;0.65;0.65;;;5.70;99.90;;;;;;4974803;28;20230;-86
2022/04/14 09:20:28;;;;;;;0.93;0.93;;;5.80;99.90;;;;;;4975816;28;20586;-86
2022/04/14 09:23:22;;;;;;;0.60;0.60;;;5.80;99.90;;;;;;4974650;28;20559;-86
2022/04/14 09:25:52;;;;;;;0.80;0.80;;;5.70;99.90;;;;;;4974612;28;20246;-87
2022/04/14 09:28:20;;;;;;;0.70;0.70;;;5.70;99.90;;;;;;4975815;28;20197;-86
2022/04/14 09:31:15;;;;;;;0.80;0.80;;;5.60;99.90;;;;;;4975953;28;20220;-87
2022/04/14 09:33:46;;;;;;;0.70;0.70;;;5.60;99.90;;;;;;4963222;28;20216;-87
2022/04/14 09:36:15;;;;;;;0.85;0.85;;;5.70;99.90;;;;;;4974504;28;20579;-87
2022/04/14 09:39:01;;;;;;;1.30;0.90;;;5.70;99.90;;;;;;4975957;28;20200;-86
2022/04/14 09:41:41;;;;;;;0.70;0.70;;;5.70;99.90;;;;;;4973971;28;20630;-86
2022/04/14 09:44:11;;;;;;;0.95;0.95;;;5.80;99.90;;;;;;4975369;28;20246;-86
2022/04/14 09:46:48;;;;;;;0.65;0.65;;;5.80;99.90;;;;;;4990437;28;20196;-86
2022/04/14 09:49:17;;;;;;;2.35;2.10;;;5.90;99.90;;;;;;4974224;28;20204;-86
2022/04/14 09:51:51;;;;;;;1.88;1.73;;;5.90;99.90;;;;;;4990694;28;20208;-85
2022/04/14 09:54:17;;;;;;;1.33;1.23;;;5.90;99.90;;;;;;4990610;28;20200;-87
2022/04/14 09:56:45;;;;;;;0.90;0.90;;;5.90;99.90;;;;;;4990206;28;20200;-87
2022/04/14 09:59:12;;;;;;;1.10;1.10;;;6.00;99.90;;;;;;4990168;28;20207;-87
2022/04/14 10:01:38;;;;;;;0.70;0.70;;;6.00;99.90;;;;;;4973693;28;20367;-86
2022/04/14 10:04:06;;;;;;;1.00;1.00;;;6.10;99.90;;;;;;4974216;28;20188;-86
2022/04/14 10:06:32;;;;;;;0.68;0.68;;;6.10;99.90;;;;;;4974910;28;20695;-86
2022/04/14 10:08:58;;;;;;;0.70;0.70;;;6.20;99.90;;;;;;4989894;28;20710;-86
2022/04/14 10:11:34;;;;;;;1.05;0.95;;;6.30;99.90;;;;;;4973231;28;20236;-87
2022/04/14 10:14:11;;;;;;;1.15;1.05;;;6.30;99.90;;;;;;4989977;28;20204;-86
2022/04/14 10:16:39;;;;;;;0.70;0.70;;;6.40;99.90;;;;;;4974764;28;20200;-87
2022/04/14 10:19:09;;;;;;;0.85;0.85;;;6.60;99.90;;;;;;4973532;28;20207;-87
2022/04/14 10:21:36;;;;;;;0.70;0.70;;;6.70;99.90;;;;;;4973272;28;20226;-86
2022/04/14 10:24:03;;;;;;;0.98;0.98;;;6.80;99.90;;;;;;4973647;28;20563;-86
2022/04/14 10:26:30;;;;;;;0.65;0.65;;;6.70;99.90;;;;;;4973237;28;20199;-85
2022/04/14 10:28:56;;;;;;;0.60;0.60;;;6.80;99.90;;;;;;4973449;28;20559;-84
2022/04/14 10:31:22;;;;;;;0.70;0.70;;;6.70;99.90;;;;;;4973266;28;20206;-85
2022/04/14 10:33:48;;;;;;;0.90;0.90;;;6.70;99.90;;;;;;4973428;28;20196;-84
2022/04/14 10:36:14;;;;;;;0.63;0.63;;;6.80;99.90;;;;;;4973281;28;20258;-84
2022/04/14 10:38:43;;;;;;;0.90;0.90;;;6.90;99.90;;;;;;4973273;28;20295;-84
2022/04/14 10:41:21;;;;;;;1.48;1.38;;;7.00;99.90;;;;;;4983912;28;20263;-85
2022/04/14 10:43:47;;;;;;;0.80;0.80;;;7.00;99.90;;;;;;4970383;28;20688;-85
2022/04/14 10:46:17;;;;;;;0.90;0.90;;;7.10;99.90;;;;;;4985395;28;20737;-85
2022/04/14 10:48:44;;;;;;;0.70;0.70;;;7.10;99.90;;;;;;4957127;28;20204;-84
2022/04/14 10:51:28;;;;;;;0.70;0.70;;;7.10;99.90;;;;;;4974352;28;20196;-84
2022/04/14 10:54:06;;;;;;;1.25;1.17;;;7.10;99.90;;;;;;4973526;28;20684;-84
2022/04/14 10:56:37;;;;;;;0.68;0.68;;;7.00;99.90;;;;;;4973971;28;20684;-84
2022/04/14 10:59:12;;;;;;;0.85;0.85;;;7.00;99.90;;;;;;4974183;28;20238;-84
2022/04/14 11:01:47;;;;;;;1.05;0.93;;;7.00;99.90;;;;;;4973829;28;20681;-84
2022/04/14 11:04:35;;;;;;;0.63;0.63;;;7.10;99.90;;;;;;4986783;28;20702;-84
2022/04/14 11:07:18;;;;;;;0.60;0.60;;;7.10;99.90;;;;;;4974108;28;20200;-84
2022/04/14 11:09:51;;;;;;;0.60;0.60;;;7.10;99.90;;;;;;4972755;28;20203;-84
2022/04/14 11:12:23;;;;;;;0.95;0.95;;;7.10;99.90;;;;;;4972527;28;20227;-84
2022/04/14 11:15:01;;;;;;;2.78;1.83;;;7.20;99.90;;;;;;4970325;28;20219;-83
2022/04/14 11:20:19;;;;;;;4.78;1.73;;;7.20;99.90;;;;;;4954599;28;20208;-83
2022/04/14 11:23:27;;;;;;;0.60;0.60;;;7.20;99.90;;;;;;4954527;28;20200;-84
2022/04/14 11:26:07;;;;;;;1.13;0.90;;;7.10;99.90;;;;;;4954599;28;20239;-84
2022/04/14 11:28:39;;;;;;;0.77;0.77;;;7.10;99.90;;;;;;4955656;28;20617;-83
2022/04/14 11:31:05;;;;;;;10.13;1.67;;;7.10;99.90;;;;;;4988645;28;20694;-84
2022/04/14 11:33:30;;;;;;;0.60;0.60;;;7.00;99.90;;;;;;4973414;28;20200;-84
2022/04/14 11:36:19;;;;;;;0.77;0.77;;;6.90;99.90;;;;;;4988736;28;20192;-84
2022/04/14 11:39:08;;;;;;;0.70;0.70;;;6.80;99.90;;;;;;4988688;28;20192;-84
2022/04/14 11:41:42;;;;;;;0.70;0.70;;;6.80;99.90;;;;;;4988108;28;20224;-84
2022/04/14 11:44:16;;;;;;;0.80;0.80;;;6.70;99.90;;;;;;4956238;28;20195;-84
2022/04/14 11:46:54;;;;;;;0.70;0.70;;;6.60;99.90;;;;;;4955917;28;20228;-85
2022/04/14 11:49:25;;;;;;;0.98;0.93;;;6.70;99.90;;;;;;4956135;28;20202;-84
2022/04/14 11:51:53;;;;;;;0.80;0.80;;;6.70;99.90;;;;;;4956109;28;20337;-85
2022/04/14 11:54:39;;;;;;;0.70;0.70;;;6.70;99.90;;;;;;4955982;28;20200;-85
2022/04/14 11:57:09;;;;;;;0.70;0.70;;;6.60;99.90;;;;;;4971810;28;20226;-85
2022/04/14 11:59:46;;;;;;;2.92;1.23;;;6.60;99.90;;;;;;4955791;28;20200;-84
2022/04/14 12:02:20;;;;;;;0.90;0.90;;;6.50;99.90;;;;;;4990967;28;20195;-85
2022/04/14 12:04:51;;;;;;;2.00;1.42;;;6.50;99.90;;;;;;4992871;28;20536;-84
2022/04/14 12:07:18;;;;;;;0.90;0.90;;;6.40;99.90;;;;;;4992912;28;20242;-84
2022/04/14 12:09:45;;;;;;;1.48;0.80;;;6.40;99.90;;;;;;4975436;28;20198;-84
2022/04/14 12:12:12;;;;;;;0.70;0.70;;;6.40;99.90;;;;;;4961433;28;20228;-84
2022/04/14 12:14:46;;;;;;;0.70;0.70;;;6.50;99.90;;;;;;4974919;28;20968;-84
2022/04/14 12:17:13;;;;;;;0.75;0.75;;;6.50;99.90;;;;;;4944926;28;20275;-84
2022/04/14 12:19:46;;;;;;;13.00;1.27;;;6.60;99.90;;;;;;4969963;28;20357;-84
2022/04/14 12:22:13;;;;;;;1.27;1.17;;;6.60;99.90;;;;;;4973358;28;20250;-84
2022/04/14 12:24:45;;;;;;;0.70;0.70;;;6.70;99.90;;;;;;4992620;28;20278;-85
2022/04/14 12:27:20;;;;;;;0.77;0.77;;;6.80;99.90;;;;;;4977633;28;20667;-84
2022/04/14 12:29:45;;;;;;;1.00;1.00;;;6.90;99.90;;;;;;4996236;28;20283;-84
2022/04/14 12:32:13;;;;;;;0.75;0.75;;;7.00;99.90;;;;;;4996022;28;20231;-83
2022/04/14 12:34:43;;;;;;;0.65;0.65;;;7.30;99.90;;;;;;4996098;28;20195;-84
2022/04/14 12:37:13;;;;;;;0.80;0.80;;;7.40;99.90;;;;;;4996197;28;20195;-84
2022/04/14 12:39:56;;;;;;;1.75;1.15;;;7.60;99.90;;;;;;4995850;28;20678;-84
2022/04/14 12:42:28;;;;;;;0.80;0.80;;;7.50;99.90;;;;;;4978403;28;20635;-85
2022/04/14 12:44:53;;;;;;;0.70;0.70;;;7.60;99.90;;;;;;4979048;28;20652;-85
2022/04/14 12:47:29;;;;;;;0.70;0.70;;;7.60;99.90;;;;;;4978295;28;20199;-85
2022/04/14 12:49:56;;;;;;;0.70;0.70;;;7.60;99.90;;;;;;4995678;28;20191;-86
2022/04/14 12:52:21;;;;;;;0.70;0.70;;;7.50;99.90;;;;;;4994277;28;20239;-85
2022/04/14 12:54:48;;;;;;;0.90;0.90;;;7.40;99.90;;;;;;4994640;28;20341;-85
2022/04/14 12:57:22;;;;;;;1.10;1.00;;;7.40;99.90;;;;;;4986270;28;20682;-85
2022/04/14 13:00:08;;;;;;;0.60;0.60;;;7.40;99.90;;;;;;4975026;28;20196;-85
2022/04/14 13:02:34;;;;;;;1.50;1.40;;;7.30;99.90;;;;;;4974770;28;20203;-85
2022/04/14 13:05:06;;;;;;;0.57;0.57;;;7.20;99.90;;;;;;4976268;28;20271;-84